Latest Weather Observations for Clare

IDS60801

Issued at 9:05 pm CST Thursday 21 August 2014 (issued every 30 minutes, with the page automatically refreshed every 10 minutes)

About weather observations | Map of weather stations | Latest weather observations for SA | Other Formats
Station Details ID: 021131 Name: CLARE HIGH SCHOOL Lat: -33.82 Lon: 138.59 Height: 395.0 m
Data from the previous 72 hours. | See also: Recent months at Clare
Date/Time
CST
Temp
°C
App
Temp
°C
Dew
Point
Rel
Hum
%
Delta-T
°C
Wind Press
QNH
hPa
Press
MSL
hPa
Rain
since 9 am
mm
Dir
 
Spd
km/h
Gust
km/h
Spd
kts
Gust
kts
21/09:00pm 10.1 7.8 5.5 73 2.1 ESE 7 13 4 7 1025.6 1026.1 0.0
21/08:30pm 10.4 8.1 5.6 72 2.2 E 7 13 4 7 1025.5 - 0.0
21/08:00pm 10.7 8.1 6.1 73 2.2 E 9 15 5 8 1025.3 - 0.0
21/07:30pm 10.6 8.0 6.2 74 2.1 E 9 15 5 8 1025.0 - 0.0
21/07:00pm 11.2 8.6 6.3 72 2.4 E 9 13 5 7 1024.8 - 0.0
21/06:30pm 11.5 9.3 6.4 71 2.5 E 7 11 4 6 1024.5 - 0.0
21/06:00pm 12.4 9.9 6.7 68 2.8 E 9 13 5 7 1024.3 1024.8 0.0
21/05:30pm 13.0 10.6 7.0 67 3.0 E 9 17 5 9 1024.0 - 0.0
21/05:00pm 13.8 11.0 6.9 63 3.4 ENE 11 17 6 9 1023.9 - 0.0
21/04:30pm 14.4 11.4 7.7 64 3.4 ENE 13 19 7 10 1023.7 - 0.0
21/04:00pm 15.2 12.7 8.0 62 3.7 ENE 11 20 6 11 1023.3 - 0.0
21/03:30pm 15.1 12.1 7.6 61 3.8 ENE 13 20 7 11 1023.3 - 0.0
21/03:00pm 15.2 12.7 8.0 62 3.7 NE 11 15 6 8 1023.5 1023.9 0.0
21/02:30pm 15.0 12.3 7.5 61 3.8 NE 11 19 6 10 1023.6 - 0.0
21/02:00pm 15.4 12.1 7.9 61 3.8 NE 15 22 8 12 1023.8 - 0.0
21/01:30pm 14.7 11.6 7.3 61 3.7 NNE 13 19 7 10 1024.1 - 0.0
21/01:00pm 14.2 11.5 7.3 63 3.5 ENE 11 19 6 10 1024.3 - 0.0
21/12:30pm 13.7 10.5 6.8 63 3.4 NE 13 19 7 10 1024.9 - 0.0
21/12:00pm 13.2 10.0 7.0 66 3.0 NE 13 22 7 12 1025.4 1025.9 0.0
21/11:30am 12.8 10.0 7.0 68 2.9 ENE 11 17 6 9 1025.8 - 0.0
21/11:00am 13.2 10.6 7.6 69 2.8 NE 11 19 6 10 1026.1 - 0.0
21/10:30am 12.6 9.7 6.6 67 2.9 NE 11 17 6 9 1026.4 - 0.0
21/10:00am 11.8 8.5 6.3 69 2.7 NE 13 17 7 9 1026.5 - 0.0
21/09:30am 11.4 9.3 6.7 73 2.3 ENE 7 11 4 6 1026.7 - 0.0
21/09:00am 9.6 7.1 4.8 72 2.2 ENE 7 11 4 6 1026.8 1027.3 0.0
21/08:30am 8.8 6.2 4.2 73 2.1 ENE 7 11 4 6 1026.7 - 0.0
21/08:00am 7.6 5.0 4.0 78 1.6 E 7 11 4 6 1026.5 - 0.0
21/07:30am 6.2 4.1 3.7 84 1.1 ESE 4 7 2 4 1026.3 - 0.0
21/07:00am 4.8 2.2 3.0 88 0.8 E 6 7 3 4 1026.2 - 0.0
21/06:30am 5.3 2.7 3.0 85 1.0 ESE 6 13 3 7 1026.0 - 0.0
21/06:00am 5.6 2.8 2.9 83 1.1 E 7 13 4 7 1025.7 1026.2 0.0
21/05:30am 5.9 2.7 3.1 82 1.2 E 9 17 5 9 1025.4 - 0.0
21/05:00am 6.2 3.0 3.2 81 1.3 E 9 19 5 10 1025.4 - 0.0
21/04:30am 6.1 2.9 3.1 81 1.3 E 9 13 5 7 1025.4 - 0.0
21/04:00am 6.2 2.6 3.2 81 1.3 E 11 20 6 11 1025.4 - 0.0
21/03:30am 6.5 2.5 3.1 79 1.5 E 13 20 7 11 1025.5 - 0.0
21/03:00am 6.4 2.5 3.2 80 1.4 E 13 20 7 11 1025.5 1026.0 0.0
21/02:30am 6.3 2.8 3.3 81 1.3 E 11 17 6 9 1025.7 - 0.0
21/02:00am 6.2 2.6 3.2 81 1.3 E 11 20 6 11 1026.0 - 0.0
21/01:30am 6.0 2.4 3.0 81 1.3 E 11 20 6 11 1026.1 - 0.0
21/01:00am 6.2 2.6 3.2 81 1.3 E 11 20 6 11 1026.0 - 0.0
21/12:30am 6.2 2.6 3.2 81 1.3 E 11 17 6 9 1026.1 - 0.0
21/12:00am 6.4 3.2 3.2 80 1.4 E 9 19 5 10 1026.1 1026.5 0.0
 
Date/Time
CST
Temp
°C
App
Temp
°C
Dew
Point
Rel
Hum
%
Delta-T
°C
Wind Press
QNH
hPa
Press
MSL
hPa
Rain
since 9 am
mm
Dir
 
Spd
km/h
Gust
km/h
Spd
kts
Gust
kts
20/11:30pm 6.6 3.1 3.4 80 1.4 E 11 20 6 11 1026.2 - 0.0
20/11:00pm 6.7 3.2 3.5 80 1.4 ESE 11 19 6 10 1026.3 - 0.0
20/10:30pm 6.9 3.4 3.7 80 1.4 E 11 20 6 11 1026.2 - 0.0
20/10:00pm 7.3 3.9 3.9 79 1.5 ESE 11 20 6 11 1026.2 - 0.0
20/09:30pm 7.4 4.4 4.0 79 1.5 ESE 9 17 5 9 1026.0 - 0.0
20/09:00pm 7.5 4.9 4.1 79 1.5 E 7 13 4 7 1025.7 1026.2 0.0
20/08:30pm 8.0 5.1 4.4 78 1.6 ESE 9 15 5 8 1025.7 - 0.0
20/08:00pm 7.8 5.3 4.7 81 1.4 ESE 7 13 4 7 1025.5 - 0.0
20/07:30pm 8.2 5.7 5.0 80 1.5 SE 7 13 4 7 1025.3 - 0.0
20/07:00pm 9.0 6.5 5.0 76 1.8 ESE 7 11 4 6 1025.2 - 0.0
20/06:30pm 9.6 7.2 5.2 74 2.0 E 7 11 4 6 1025.0 - 0.0
20/06:00pm 10.8 7.6 5.3 69 2.6 E 11 19 6 10 1024.8 1025.3 0.0
20/05:30pm 11.6 8.9 5.5 66 2.9 E 9 15 5 8 1024.7 - 0.0
20/05:00pm 11.9 8.8 5.5 65 3.0 E 11 19 6 10 1024.5 - 0.0
20/04:30pm 12.6 9.4 5.3 61 3.5 E 11 20 6 11 1024.5 - 0.0
20/04:00pm 12.8 10.2 6.2 64 3.2 E 9 13 5 7 1024.5 - 0.0
20/03:30pm 12.2 9.9 4.7 60 3.5 ENE 6 7 3 4 1024.6 - 0.0
20/03:00pm 12.0 9.1 4.7 61 3.4 NE 9 17 5 9 1024.7 1025.2 0.0
20/02:30pm 13.9 11.4 6.5 61 3.6 NNE 9 19 5 10 1024.6 - 0.0
20/02:00pm 11.9 9.1 5.3 64 3.1 ENE 9 17 5 9 1024.8 - 0.0
20/01:30pm 11.8 8.5 4.5 61 3.4 ENE 11 17 6 9 1024.9 - 0.0
20/01:00pm 12.0 8.8 5.2 63 3.2 ENE 11 17 6 9 1025.2 - 0.0
20/12:30pm 12.0 8.6 5.9 66 2.9 ENE 13 20 7 11 1025.7 - 0.0
20/12:00pm 11.2 7.5 6.1 71 2.4 E 15 24 8 13 1026.2 1026.6 0.0
20/11:30am 10.9 7.0 5.2 68 2.7 ENE 15 22 8 12 1026.6 - 0.0
20/11:00am 10.1 6.1 5.1 71 2.3 ENE 15 20 8 11 1026.8 - 0.0
20/10:30am 10.0 6.1 5.2 72 2.2 E 15 24 8 13 1026.8 - 0.0
20/10:00am 10.1 7.0 5.7 74 2.1 ENE 11 22 6 12 1026.8 - 0.0
20/09:30am 9.2 5.3 5.2 76 1.8 E 15 24 8 13 1026.7 - 0.0
20/09:00am 8.2 4.5 4.2 76 1.8 ESE 13 19 7 10 1026.6 1027.1 0.0
20/08:30am 7.7 4.7 4.3 79 1.5 ESE 9 17 5 9 1026.5 - 0.0
20/08:00am 6.6 3.2 3.9 83 1.2 ESE 11 24 6 13 1026.2 - 0.0
20/07:30am 5.5 2.8 3.8 89 0.7 ESE 7 15 4 8 1026.0 - 0.0
20/07:00am 4.6 2.1 3.6 93 0.4 SE 6 9 3 5 1025.6 - 0.0
20/06:30am 4.5 2.3 3.6 94 0.4 ESE 4 9 2 5 1025.4 - 0.0
20/06:00am 4.4 1.9 3.7 95 0.3 ESE 6 11 3 6 1025.1 1025.6 0.0
20/05:30am 4.1 1.6 3.8 98 0.1 ESE 6 9 3 5 1025.0 - 0.0
20/05:00am 3.0 0.3 2.7 98 0.1 ESE 6 7 3 4 1025.0 - 0.0
20/04:30am 2.2 -0.2 1.9 98 0.1 ESE 4 7 2 4 1025.0 - 0.0
20/04:00am 2.1 -0.3 2.0 99 0.0 ESE 4 7 2 4 1024.8 - 0.0
20/03:30am 1.5 -1.4 1.2 98 0.1 ESE 6 9 3 5 1024.7 - 0.0
20/03:00am 2.1 -0.4 1.8 98 0.1 SE 4 9 2 5 1024.7 1025.2 0.0
20/02:30am 2.2 -0.6 1.9 98 0.1 SE 6 9 3 5 1025.0 - 0.0
20/02:00am 2.5 0.5 2.1 97 0.2 SE 2 6 1 3 1025.3 - 0.0
20/01:30am 3.0 1.1 2.7 98 0.1 ESE 2 6 1 3 1025.4 - 0.0
20/01:00am 3.3 1.4 2.9 97 0.2 ESE 2 7 1 4 1025.4 - 0.0
20/12:30am 4.0 1.4 3.4 96 0.3 ESE 6 9 3 5 1025.3 - 0.0
20/12:00am 5.9 2.7 5.0 94 0.4 SSE 11 15 6 8 1025.2 1025.7 0.0
 
Date/Time
CST
Temp
°C
App
Temp
°C
Dew
Point
Rel
Hum
%
Delta-T
°C
Wind Press
QNH
hPa
Press
MSL
hPa
Rain
since 9 am
mm
Dir
 
Spd
km/h
Gust
km/h
Spd
kts
Gust
kts
19/11:30pm 3.9 1.1 3.3 96 0.3 SE 7 11 4 6 1025.3 - 0.0
19/11:00pm 4.0 1.2 3.1 94 0.4 SSE 7 13 4 7 1025.3 - 0.0
19/10:30pm 4.6 1.5 3.7 94 0.4 SSE 9 11 5 6 1025.5 - 0.0
19/10:00pm 4.3 2.9 3.3 93 0.4 CALM 0 0 0 0 1025.5 - 0.0
19/09:30pm 5.6 3.2 4.2 91 0.6 S 6 7 3 4 1025.5 - 0.0
19/09:00pm 6.7 3.9 5.0 89 0.8 S 9 11 5 6 1025.6 1026.1 0.0
19/08:30pm 7.5 5.1 5.1 85 1.1 S 7 11 4 6 1025.6 - 0.0
19/08:00pm 8.0 4.8 5.3 83 1.2 S 11 15 6 8 1025.4 - 0.0
19/07:30pm 8.1 5.3 5.2 82 1.3 S 9 13 5 7 1025.3 - 0.0
19/07:00pm 8.3 5.2 5.4 82 1.3 S 11 15 6 8 1025.1 - 0.0
19/06:30pm 8.5 6.3 5.3 80 1.5 S 6 9 3 5 1024.9 - 0.0
19/06:00pm 8.7 5.9 5.3 79 1.6 S 9 13 5 7 1024.7 1025.2 0.0
19/05:30pm 9.1 6.2 4.9 75 1.9 S 9 17 5 9 1024.4 - 0.0
19/05:00pm 9.8 7.0 3.3 64 2.9 SSE 7 13 4 7 1024.2 - 0.0
19/04:30pm 10.1 6.9 2.9 61 3.2 SSE 9 20 5 11 1024.1 - 0.0
19/04:00pm 10.9 7.9 4.1 63 3.1 S 9 17 5 9 1024.0 - 0.0
19/03:30pm 11.2 7.6 3.0 57 3.7 SE 11 19 6 10 1024.0 - 0.0
19/03:00pm 10.6 7.5 3.6 62 3.1 SSE 9 13 5 7 1024.1 1024.5 0.0
19/02:30pm 10.1 6.7 4.0 66 2.8 SE 11 20 6 11 1024.2 - 0.0
19/02:00pm 10.3 6.8 3.6 63 3.0 SE 11 19 6 10 1024.3 - 0.0
19/01:30pm 9.9 6.6 2.7 61 3.2 SE 9 17 5 9 1024.4 - 0.0
19/01:00pm 8.8 5.1 2.2 63 2.8 SE 11 17 6 9 1024.7 - 0.0
19/12:30pm 8.7 4.6 2.1 63 2.8 SSE 13 20 7 11 1025.1 - 0.0
19/12:00pm 8.6 4.9 2.4 65 2.6 SE 11 19 6 10 1025.5 1026.0 0.0
19/11:30am 8.6 4.8 1.7 62 2.9 ESE 11 20 6 11 1025.8 - 0.0
19/11:00am 8.4 5.1 2.2 65 2.6 SE 9 17 5 9 1026.1 - 0.0
19/10:30am 8.0 4.4 2.7 69 2.3 SSE 11 17 6 9 1026.1 - 0.0
19/10:00am 8.0 4.8 3.1 71 2.1 SE 9 17 5 9 1026.2 - 0.0
19/09:30am 7.7 3.9 2.0 67 2.4 SE 11 22 6 12 1026.1 - 0.0
19/09:00am 7.4 4.2 2.9 73 1.9 SSE 9 15 5 8 1026.0 1026.4 0.0
19/08:30am 6.6 4.1 3.6 81 1.3 SSE 6 11 3 6 1025.7 - 0.0
19/08:00am 4.2 2.5 3.8 97 0.2 SE 2 9 1 5 1025.5 - 0.0
19/07:30am 2.7 0.4 2.6 99 0.0 SE 4 7 2 4 1025.3 - 0.0
19/07:00am 1.3 -0.9 1.2 99 0.0 SE 2 7 1 4 1025.1 - 0.0
19/06:30am 0.3 -1.7 0.2 99 0.0 CALM 0 0 0 0 1024.6 - 0.0
19/06:00am -0.1 -2.1 -0.2 99 0.0 CALM 0 0 0 0 1024.4 1024.9 0.0
19/05:30am 0.2 -1.8 0.1 99 0.0 CALM 0 0 0 0 1024.3 - 0.0
19/05:00am 0.3 -1.7 0.0 98 0.1 CALM 0 0 0 0 1024.2 - 0.0
19/04:30am 1.0 -0.9 0.7 98 0.1 CALM 0 0 0 0 1024.1 - 0.0
19/04:00am 1.3 -0.5 1.0 98 0.1 CALM 0 6 0 3 1024.0 - 0.0
19/03:30am 1.6 -0.2 1.0 96 0.2 CALM 0 6 0 3 1024.1 - 0.0
19/03:00am 2.2 0.5 1.6 96 0.2 CALM 0 0 0 0 1024.0 1024.4 0.0
19/02:30am 2.8 0.3 1.6 92 0.5 SE 4 7 2 4 1024.2 - 0.0
19/02:00am 3.7 1.0 2.8 94 0.4 SE 6 9 3 5 1024.5 - 0.0
19/01:30am 4.1 2.5 2.6 90 0.6 CALM 0 6 0 3 1024.6 - 0.0
19/01:00am 6.0 3.9 3.7 85 1.0 ESE 4 7 2 4 1024.7 - 0.0
19/12:30am 6.3 3.9 4.5 88 0.8 ESE 6 9 3 5 1024.7 - 0.0
19/12:00am 5.2 3.7 5.1 99 0.0 SE 2 9 1 5 1025.0 1025.5 0.0
 
Date/Time
CST
Temp
°C
App
Temp
°C
Dew
Point
Rel
Hum
%
Delta-T
°C
Wind Press
QNH
hPa
Press
MSL
hPa
Rain
since 9 am
mm
Dir
 
Spd
km/h
Gust
km/h
Spd
kts
Gust
kts
18/11:30pm 4.8 3.6 4.5 98 0.1 CALM 0 0 0 0 1025.1 - 0.0
18/11:00pm 4.9 3.7 4.5 97 0.2 CALM 0 0 0 0 1024.9 - 0.0
18/10:30pm 5.1 3.9 4.5 96 0.3 CALM 0 0 0 0 1025.0 - 0.0
18/10:00pm 5.9 3.1 5.3 96 0.3 SSW 9 11 5 6 1025.0 - 0.0
18/09:30pm 6.9 4.2 5.4 90 0.7 SSW 9 11 5 6 1025.0 - 0.0

Other Formats:

Comma delimited format used in spreadsheet applications
http://www.bom.gov.au/fwo/IDS60801/IDS60801.95667.axf

JavaScript Object Notation format (JSON) in row-major order
http://www.bom.gov.au/fwo/IDS60801/IDS60801.95667.json